Time;durP1;ratioP1;P1;durP2;ratioP2;P2;SDS_P1;SDS_P2;PMS_P1;PMS_P2;Temp;Humidity;BMP_temperature;BMP_pressure;BME280_temperature;BME280_humidity;BME280_pressure;Samples;Min_cycle;Max_cycle;Signal;HPM_P1;HPM_P2
2023/01/21 00:00:33;;;;;;;27.58;12.68;;;-0.20;99.90;;;;;;5054262;28;20037;-72
2023/01/21 00:02:58;;;;;;;23.88;11.82;;;-0.30;99.90;;;;;;5053617;28;20029;-72
2023/01/21 00:05:24;;;;;;;26.35;12.95;;;-0.30;99.90;;;;;;5054044;28;20032;-72
2023/01/21 00:07:50;;;;;;;23.60;11.57;;;-0.30;99.90;;;;;;5054193;28;20029;-72
2023/01/21 00:10:15;;;;;;;26.23;12.98;;;-0.20;99.90;;;;;;5053696;28;20474;-72
2023/01/21 00:12:41;;;;;;;25.50;12.93;;;-0.30;99.90;;;;;;5053302;28;20491;-71
2023/01/21 00:15:07;;;;;;;23.40;10.80;;;-0.30;99.90;;;;;;5053767;28;20102;-71
2023/01/21 00:17:34;;;;;;;26.58;12.77;;;-0.30;99.90;;;;;;5053710;28;20037;-71
2023/01/21 00:20:04;;;;;;;22.08;11.90;;;-0.30;99.90;;;;;;5053667;28;20020;-71
2023/01/21 00:22:30;;;;;;;23.95;11.40;;;-0.30;99.90;;;;;;5053771;28;20033;-71
2023/01/21 00:24:55;;;;;;;21.27;11.43;;;-0.30;99.90;;;;;;5053616;28;20035;-72
2023/01/21 00:27:21;;;;;;;26.23;12.73;;;-0.20;99.90;;;;;;5035810;28;20033;-71
2023/01/21 00:29:47;;;;;;;23.23;12.55;;;-0.30;99.90;;;;;;5053618;28;20098;-66
2023/01/21 00:32:13;;;;;;;24.30;11.45;;;-0.30;99.90;;;;;;5053800;28;20025;-72
2023/01/21 00:34:39;;;;;;;24.30;11.68;;;-0.30;99.90;;;;;;5053657;28;20088;-73
2023/01/21 00:37:05;;;;;;;24.75;12.63;;;-0.20;99.90;;;;;;5053579;28;20044;-73
2023/01/21 00:39:30;;;;;;;23.17;11.10;;;-0.30;99.90;;;;;;5053572;28;20029;-73
2023/01/21 00:41:56;;;;;;;23.45;11.38;;;-0.30;99.90;;;;;;5035729;28;20355;-74
2023/01/21 00:44:22;;;;;;;25.40;11.77;;;-0.30;99.90;;;;;;5035624;28;20032;-74
2023/01/21 00:46:47;;;;;;;23.92;12.23;;;-0.30;99.90;;;;;;5053517;28;20044;-75
2023/01/21 00:49:13;;;;;;;25.67;14.38;;;-0.30;99.90;;;;;;5053506;28;20029;-74
2023/01/21 00:51:39;;;;;;;22.52;12.05;;;-0.30;99.90;;;;;;5035645;28;20036;-74
2023/01/21 00:54:05;;;;;;;22.63;12.20;;;;;;;;;;5053477;28;20033;-75
2023/01/21 00:56:30;;;;;;;24.88;13.30;;;-0.30;99.90;;;;;;5053535;28;20068;-74
2023/01/21 00:58:56;;;;;;;20.52;10.52;;;-0.30;99.90;;;;;;5053479;28;20033;-74
2023/01/21 01:01:21;;;;;;;25.33;12.15;;;-0.30;99.90;;;;;;5036067;28;20075;-75
2023/01/21 01:03:48;;;;;;;26.05;13.75;;;-0.30;99.90;;;;;;5036003;28;20021;-74
2023/01/21 01:06:16;;;;;;;24.80;12.25;;;-0.30;99.90;;;;;;5053907;28;20061;-75
2023/01/21 01:08:43;;;;;;;26.73;13.15;;;-0.30;99.90;;;;;;5053568;28;20029;-75
2023/01/21 01:11:10;;;;;;;25.38;12.75;;;-0.30;99.90;;;;;;5053047;28;20425;-75
2023/01/21 01:13:36;;;;;;;25.10;12.57;;;-0.30;99.90;;;;;;5035680;28;20025;-75
2023/01/21 01:16:02;;;;;;;26.85;12.68;;;-0.30;99.90;;;;;;5053157;28;20029;-76
2023/01/21 01:18:31;;;;;;;25.40;13.38;;;-0.30;99.90;;;;;;5053229;28;20044;-76
2023/01/21 01:20:57;;;;;;;26.45;13.38;;;-0.30;99.90;;;;;;5053183;28;20028;-76
2023/01/21 01:23:23;;;;;;;22.20;12.77;;;-0.30;99.90;;;;;;5056040;28;20500;-75
2023/01/21 01:26:03;;;;;;;29.05;13.10;;;-0.30;99.90;;;;;;5057606;28;20031;-76
2023/01/21 01:28:30;;;;;;;26.38;12.88;;;-0.30;99.90;;;;;;5038987;28;20053;-76
2023/01/21 01:30:57;;;;;;;25.65;12.30;;;-0.30;99.90;;;;;;5056858;28;20040;-76
2023/01/21 01:33:23;;;;;;;25.00;12.52;;;-0.30;99.90;;;;;;5056849;28;20025;-76
2023/01/21 01:35:49;;;;;;;24.45;13.25;;;-0.30;99.90;;;;;;5056721;28;20040;-76
2023/01/21 01:38:18;;;;;;;25.17;12.88;;;-0.30;99.90;;;;;;5056723;28;20025;-76
2023/01/21 01:40:45;;;;;;;23.80;13.50;;;-0.20;99.90;;;;;;5056702;28;20031;-76
2023/01/21 01:43:15;;;;;;;24.20;12.50;;;-0.30;99.90;;;;;;5056615;28;20036;-76
2023/01/21 01:45:40;;;;;;;25.20;12.65;;;-0.30;99.90;;;;;;5056889;28;20029;-76
2023/01/21 01:48:07;;;;;;;24.75;12.05;;;-0.30;99.90;;;;;;5056730;28;20099;-76
2023/01/21 01:50:36;;;;;;;24.13;12.13;;;-0.20;99.90;;;;;;5039134;28;20095;-77
2023/01/21 01:53:02;;;;;;;25.38;12.93;;;-0.20;99.90;;;;;;5056221;28;20525;-76
2023/01/21 01:55:31;;;;;;;30.08;13.85;;;-0.20;99.90;;;;;;5056669;28;20033;-76
2023/01/21 01:57:56;;;;;;;;;;;-0.20;99.90;;;;;;5056894;28;20064;-77
2023/01/21 02:00:24;;;;;;;23.67;11.77;;;-0.20;99.90;;;;;;5038607;28;20317;-77
2023/01/21 02:05:36;;;;;;;23.25;11.90;;;-0.20;99.90;;;;;;5056560;28;20128;-77
2023/01/21 02:08:02;;;;;;;25.48;12.10;;;-0.20;99.90;;;;;;5056169;28;20420;-76
2023/01/21 02:10:30;;;;;;;23.30;12.05;;;-0.20;99.90;;;;;;5056291;28;20105;-76
2023/01/21 02:12:56;;;;;;;22.60;11.80;;;-0.20;99.90;;;;;;5038117;28;20032;-76
2023/01/21 02:15:35;;;;;;;24.58;11.88;;;-0.20;99.90;;;;;;5038124;28;20029;-76
2023/01/21 02:18:18;;;;;;;22.52;11.82;;;-0.20;99.90;;;;;;5055967;28;20082;-76
2023/01/21 02:21:07;;;;;;;23.52;11.70;;;-0.20;99.90;;;;;;5037915;28;20167;-76
2023/01/21 02:23:53;;;;;;;25.20;11.88;;;-0.20;99.90;;;;;;5038101;28;20029;-76
2023/01/21 02:26:46;;;;;;;23.88;12.13;;;-0.20;99.90;;;;;;5038160;28;20075;-76
2023/01/21 02:29:51;;;;;;;20.13;11.00;;;-0.20;99.90;;;;;;5037687;28;20049;-77
2023/01/21 02:32:20;;;;;;;21.63;9.88;;;-0.20;99.90;;;;;;5054868;28;20037;-76
2023/01/21 02:35:00;;;;;;;21.75;10.35;;;-0.20;99.90;;;;;;5055280;28;20033;-77
2023/01/21 02:37:32;;;;;;;17.63;9.45;;;-0.20;99.90;;;;;;5055789;28;20060;-77
2023/01/21 02:40:10;;;;;;;21.17;10.93;;;-0.20;99.90;;;;;;5056382;28;20032;-77
2023/01/21 02:42:54;;;;;;;17.60;8.10;;;-0.20;99.90;;;;;;5037599;28;20116;-77
2023/01/21 02:45:38;;;;;;;22.48;10.23;;;-0.20;99.90;;;;;;5055347;28;20029;-77
2023/01/21 02:48:35;;;;;;;20.45;10.25;;;-0.20;99.90;;;;;;5055813;28;20475;-77
2023/01/21 02:51:03;;;;;;;18.52;9.10;;;-0.10;99.90;;;;;;5038344;28;20074;-77
2023/01/21 02:53:29;;;;;;;19.48;9.60;;;-0.20;99.90;;;;;;5056218;28;20111;-78
2023/01/21 02:55:59;;;;;;;17.35;8.52;;;-0.20;99.90;;;;;;5055326;28;20118;-77
2023/01/21 02:58:30;;;;;;;19.63;9.50;;;-0.20;99.90;;;;;;5055562;28;20028;-77
2023/01/21 03:00:59;;;;;;;17.40;8.30;;;-0.20;99.90;;;;;;5055628;28;20021;-77
2023/01/21 03:03:30;;;;;;;19.17;8.52;;;-0.10;99.90;;;;;;5037876;28;20367;-77
2023/01/21 03:06:17;;;;;;;19.17;8.50;;;-0.10;99.90;;;;;;5055398;28;20039;-77
2023/01/21 03:08:52;;;;;;;21.52;9.93;;;-0.10;99.90;;;;;;5055224;28;20021;-76
2023/01/21 03:11:20;;;;;;;14.35;8.10;;;-0.10;99.90;;;;;;5054665;28;20024;-76
2023/01/21 03:17:19;;;;;;;17.17;9.23;;;-0.20;99.90;;;;;;5054560;28;20028;-76
2023/01/21 03:19:51;;;;;;;19.08;8.75;;;-0.10;99.90;;;;;;5055120;28;20426;-76
2023/01/21 03:22:20;;;;;;;18.75;9.90;;;-0.20;99.90;;;;;;5039738;28;20132;-76
2023/01/21 03:24:50;;;;;;;18.77;8.95;;;-0.20;99.90;;;;;;5057303;28;20115;-77
2023/01/21 03:27:20;;;;;;;19.67;9.23;;;-0.10;99.90;;;;;;5038908;28;20032;-76
2023/01/21 03:29:48;;;;;;;19.23;9.40;;;-0.10;99.90;;;;;;5056019;28;20124;-76
2023/01/21 03:32:17;;;;;;;19.92;9.95;;;-0.10;99.90;;;;;;5055571;28;20490;-76
2023/01/21 03:34:47;;;;;;;19.33;9.20;;;-0.10;99.90;;;;;;5054863;28;20029;-76
2023/01/21 03:37:43;;;;;;;19.48;9.77;;;-0.10;99.90;;;;;;5054816;28;20364;-75
2023/01/21 03:40:23;;;;;;;18.40;8.80;;;-0.10;99.90;;;;;;5014025;28;20394;-75
2023/01/21 03:42:49;;;;;;;19.20;9.82;;;-0.10;99.90;;;;;;5054452;28;20029;-76
2023/01/21 03:45:20;;;;;;;18.33;9.18;;;0.00;99.90;;;;;;5036284;28;20021;-75
2023/01/21 03:47:53;;;;;;;20.83;11.10;;;0.00;99.90;;;;;;5053852;28;20037;-76
2023/01/21 03:50:32;;;;;;;17.77;9.65;;;0.00;99.90;;;;;;5054531;28;20029;-76
2023/01/21 03:52:59;;;;;;;16.05;8.18;;;0.00;99.90;;;;;;5054265;28;20032;-75
2023/01/21 03:55:24;;;;;;;20.83;9.15;;;0.00;99.90;;;;;;5054062;28;20024;-75
2023/01/21 03:57:50;;;;;;;18.88;8.98;;;0.00;99.90;;;;;;5054121;28;20112;-75
2023/01/21 04:00:16;;;;;;;20.33;8.98;;;0.00;99.90;;;;;;5054489;28;20388;-74
2023/01/21 04:02:42;;;;;;;19.63;9.95;;;0.00;99.90;;;;;;5054054;28;20032;-75
2023/01/21 04:05:08;;;;;;;19.45;9.60;;;0.00;99.90;;;;;;5054680;28;20108;-74
2023/01/21 04:07:33;;;;;;;19.38;9.63;;;-0.10;99.90;;;;;;5053648;28;20445;-74
2023/01/21 04:09:59;;;;;;;19.33;10.82;;;0.00;99.90;;;;;;5054314;28;20036;-74
2023/01/21 04:12:25;;;;;;;20.48;10.02;;;0.00;99.90;;;;;;5036060;28;20025;-74
2023/01/21 04:14:50;;;;;;;21.27;10.93;;;0.00;99.90;;;;;;5053897;28;20378;-74
2023/01/21 04:17:16;;;;;;;17.50;9.88;;;0.00;99.90;;;;;;5053803;28;20032;-74
2023/01/21 04:19:42;;;;;;;21.90;10.60;;;0.00;99.90;;;;;;5053647;28;20389;-74
2023/01/21 04:22:07;;;;;;;20.65;11.00;;;0.00;99.90;;;;;;5054231;28;20474;-75
2023/01/21 04:24:33;;;;;;;21.25;10.35;;;0.10;99.90;;;;;;5053834;28;20474;-74
2023/01/21 04:26:59;;;;;;;18.25;9.65;;;0.00;99.90;;;;;;5053400;28;20031;-74
2023/01/21 04:29:24;;;;;;;19.77;9.95;;;0.10;99.90;;;;;;5053437;28;20091;-74
2023/01/21 04:31:50;;;;;;;16.70;9.48;;;0.10;99.90;;;;;;5035970;28;20458;-74
2023/01/21 04:34:15;;;;;;;19.42;9.60;;;0.10;99.90;;;;;;5053909;28;20084;-74
2023/01/21 04:36:41;;;;;;;17.67;9.40;;;0.10;99.90;;;;;;5053676;28;20091;-74
2023/01/21 04:39:07;;;;;;;23.40;10.20;;;0.10;99.90;;;;;;5035752;28;20036;-74
2023/01/21 04:41:32;;;;;;;17.63;9.38;;;0.10;99.90;;;;;;5053657;28;20021;-74
2023/01/21 04:43:58;;;;;;;22.77;9.82;;;0.00;99.90;;;;;;5054163;28;20061;-74
2023/01/21 04:46:24;;;;;;;15.77;8.55;;;0.10;99.90;;;;;;5053711;28;20033;-74
2023/01/21 04:48:49;;;;;;;17.98;8.23;;;0.10;99.90;;;;;;5053619;28;20379;-74
2023/01/21 04:51:15;;;;;;;16.50;7.72;;;0.00;99.90;;;;;;5035417;28;20029;-74
2023/01/21 04:53:41;;;;;;;15.68;8.43;;;0.00;99.90;;;;;;5053632;28;20112;-74
2023/01/21 04:56:06;;;;;;;15.50;8.27;;;0.00;99.90;;;;;;5053323;28;20111;-74
2023/01/21 04:58:32;;;;;;;15.18;7.25;;;0.00;99.90;;;;;;5056191;28;20040;-74
2023/01/21 05:00:58;;;;;;;17.42;9.48;;;0.00;99.90;;;;;;5057374;28;20148;-74
2023/01/21 05:03:23;;;;;;;17.35;8.20;;;0.00;99.90;;;;;;5057733;28;20100;-74
2023/01/21 05:05:49;;;;;;;17.58;9.23;;;0.00;99.90;;;;;;5039461;28;20119;-75
2023/01/21 05:08:15;;;;;;;17.17;9.20;;;0.00;99.90;;;;;;5057268;28;20028;-74
2023/01/21 05:10:40;;;;;;;17.40;9.65;;;0.10;99.90;;;;;;5057422;28;20040;-74
2023/01/21 05:13:06;;;;;;;14.80;7.68;;;0.00;99.90;;;;;;5057213;28;20036;-75
2023/01/21 05:15:31;;;;;;;14.95;7.20;;;0.00;99.90;;;;;;5039221;28;20355;-75
2023/01/21 05:17:57;;;;;;;12.48;7.80;;;0.00;99.90;;;;;;5057172;28;20043;-76
2023/01/21 05:20:23;;;;;;;17.85;7.90;;;0.00;99.90;;;;;;5039058;28;20378;-75
2023/01/21 05:22:49;;;;;;;13.70;6.97;;;0.00;99.90;;;;;;5057123;28;20378;-75
2023/01/21 05:25:15;;;;;;;15.23;7.45;;;0.00;99.90;;;;;;5057003;28;20025;-74
2023/01/21 05:27:41;;;;;;;15.20;7.00;;;0.00;99.90;;;;;;5056680;28;20421;-74
2023/01/21 05:30:08;;;;;;;13.75;7.10;;;0.00;99.90;;;;;;5039363;28;20420;-75
2023/01/21 05:32:38;;;;;;;16.52;8.68;;;0.00;99.90;;;;;;5057094;28;20041;-75
2023/01/21 05:35:04;;;;;;;14.30;7.38;;;0.00;99.90;;;;;;5057094;28;20028;-76
2023/01/21 05:37:29;;;;;;;14.35;7.25;;;0.00;99.90;;;;;;5056889;28;20033;-76
2023/01/21 05:39:55;;;;;;;13.30;6.72;;;0.00;99.90;;;;;;5039001;28;20482;-76
2023/01/21 05:42:21;;;;;;;13.32;6.88;;;0.00;99.90;;;;;;5039014;28;20025;-76
2023/01/21 05:44:46;;;;;;;11.45;6.18;;;0.00;99.90;;;;;;5056941;28;20382;-76
2023/01/21 05:47:12;;;;;;;12.23;6.57;;;0.00;99.90;;;;;;5056746;28;20032;-77
2023/01/21 05:49:38;;;;;;;16.52;6.68;;;0.00;99.90;;;;;;5056974;28;20021;-76
2023/01/21 05:52:04;;;;;;;14.77;7.43;;;0.00;99.90;;;;;;5056813;28;20056;-76
2023/01/21 05:54:29;;;;;;;13.50;6.25;;;0.00;99.90;;;;;;5057700;28;20028;-76
2023/01/21 05:56:55;;;;;;;11.38;5.93;;;0.00;99.90;;;;;;5039398;28;20044;-77
2023/01/21 05:59:20;;;;;;;15.70;6.57;;;0.00;99.90;;;;;;5058189;28;20027;-76
2023/01/21 06:01:46;;;;;;;14.07;6.55;;;0.00;99.90;;;;;;5059502;28;20079;-76
2023/01/21 06:04:12;;;;;;;9.32;5.75;;;0.00;99.90;;;;;;5060401;28;20090;-76
2023/01/21 06:06:39;;;;;;;12.18;5.45;;;0.00;99.90;;;;;;5060020;28;20033;-76
2023/01/21 06:09:05;;;;;;;10.25;5.60;;;0.00;99.90;;;;;;5059171;28;20025;-76
2023/01/21 06:11:31;;;;;;;16.15;6.05;;;0.00;99.90;;;;;;5042446;28;20056;-76
2023/01/21 06:13:56;;;;;;;10.90;5.50;;;0.00;99.90;;;;;;5059731;28;20025;-75
2023/01/21 06:16:22;;;;;;;14.88;6.18;;;0.00;99.90;;;;;;5041924;28;20116;-76
2023/01/21 06:18:47;;;;;;;9.20;4.60;;;0.00;99.90;;;;;;5057436;28;20108;-76
2023/01/21 06:21:13;;;;;;;12.18;6.00;;;-0.10;99.90;;;;;;5055856;28;20482;-76
2023/01/21 06:23:39;;;;;;;10.88;5.15;;;0.00;99.90;;;;;;5060567;28;20033;-77
2023/01/21 06:26:04;;;;;;;9.30;5.10;;;0.00;99.90;;;;;;5056791;28;20040;-77
2023/01/21 06:28:30;;;;;;;10.65;6.55;;;0.00;99.90;;;;;;5056036;28;20049;-77
2023/01/21 06:30:56;;;;;;;10.48;5.35;;;0.00;99.90;;;;;;5055883;28;20508;-77
2023/01/21 06:33:21;;;;;;;12.10;6.45;;;0.00;99.90;;;;;;5037975;28;20025;-77
2023/01/21 06:35:47;;;;;;;9.55;5.00;;;-0.10;99.90;;;;;;5055653;28;20033;-77
2023/01/21 06:38:13;;;;;;;9.88;5.07;;;-0.10;99.90;;;;;;5055703;28;20029;-76
2023/01/21 06:40:39;;;;;;;12.95;5.82;;;0.00;99.90;;;;;;5055610;28;20025;-76
2023/01/21 06:43:04;;;;;;;10.57;5.20;;;0.00;99.90;;;;;;5055579;28;20100;-76
2023/01/21 06:45:30;;;;;;;11.38;5.22;;;-0.10;99.90;;;;;;5055910;28;20025;-76
2023/01/21 06:47:56;;;;;;;11.38;5.72;;;-0.10;99.90;;;;;;5055550;28;20078;-76
2023/01/21 06:50:21;;;;;;;11.02;4.97;;;-0.10;99.90;;;;;;5055121;28;20025;-76
2023/01/21 06:52:48;;;;;;;9.20;4.68;;;-0.10;99.90;;;;;;5055758;28;20075;-76
2023/01/21 06:55:15;;;;;;;9.35;4.80;;;-0.10;99.90;;;;;;5055091;28;20434;-76
2023/01/21 06:57:42;;;;;;;15.10;5.70;;;-0.10;99.90;;;;;;5055275;28;20032;-76
2023/01/21 07:00:09;;;;;;;11.75;4.97;;;-0.10;99.90;;;;;;5037366;28;20112;-76
2023/01/21 07:02:35;;;;;;;9.68;4.85;;;-0.10;99.90;;;;;;5037244;28;20029;-76
2023/01/21 07:05:01;;;;;;;13.27;5.57;;;-0.10;99.90;;;;;;5055226;28;20126;-76
2023/01/21 07:07:26;;;;;;;9.75;4.93;;;0.00;99.90;;;;;;5055380;28;20044;-75
2023/01/21 07:09:52;;;;;;;10.75;5.10;;;-0.10;99.90;;;;;;5037118;28;20032;-75
2023/01/21 07:12:18;;;;;;;9.95;4.80;;;-0.10;99.90;;;;;;5055113;28;20027;-75
2023/01/21 07:14:43;;;;;;;10.40;4.55;;;-0.10;99.90;;;;;;5037334;28;20111;-75
2023/01/21 07:17:09;;;;;;;12.30;5.00;;;-0.10;99.90;;;;;;5055190;28;20116;-74
2023/01/21 07:19:35;;;;;;;9.73;5.72;;;-0.10;99.90;;;;;;5036970;28;20394;-73
2023/01/21 07:22:00;;;;;;;10.98;4.57;;;-0.10;99.90;;;;;;5037062;28;20029;-75
2023/01/21 07:24:26;;;;;;;13.70;5.22;;;-0.10;99.90;;;;;;5056183;28;20032;-80
2023/01/21 07:26:52;;;;;;;17.52;5.22;;;-0.10;99.90;;;;;;5056600;28;20467;-77
2023/01/21 07:29:18;;;;;;;12.18;5.45;;;-0.20;99.90;;;;;;5057232;28;20045;-81
2023/01/21 07:31:44;;;;;;;15.23;5.75;;;-0.20;99.90;;;;;;5060397;28;20630;-84
2023/01/21 07:34:09;;;;;;;13.63;6.13;;;-0.20;99.90;;;;;;5090110;23;20962;-82
2023/01/21 07:36:35;;;;;;;11.38;5.65;;;-0.20;99.90;;;;;;5110709;28;20062;-82
2023/01/21 07:39:01;;;;;;;12.23;5.80;;;-0.20;99.90;;;;;;5097621;28;20028;-75
2023/01/21 07:41:26;;;;;;;9.27;5.35;;;-0.20;99.90;;;;;;5094517;28;20035;-74
2023/01/21 07:43:52;;;;;;;14.88;5.60;;;-0.20;99.90;;;;;;5094572;28;20419;-74
2023/01/21 07:46:20;;;;;;;18.05;6.10;;;-0.30;99.90;;;;;;5094621;28;20479;-75
2023/01/21 07:48:52;;;;;;;17.67;5.40;;;-0.20;99.90;;;;;;5076609;28;20478;-74
2023/01/21 07:51:19;;;;;;;11.90;5.65;;;-0.30;99.90;;;;;;5076312;28;20024;-75
2023/01/21 07:53:45;;;;;;;11.52;5.95;;;-0.30;99.90;;;;;;5094177;28;20047;-71
2023/01/21 07:56:11;;;;;;;11.05;5.43;;;-0.30;99.90;;;;;;5076174;28;20420;-75
2023/01/21 07:58:37;;;;;;;11.07;5.60;;;-0.40;99.90;;;;;;5095316;28;20028;-75
2023/01/21 08:01:08;;;;;;;10.65;5.82;;;-0.30;99.90;;;;;;5076305;28;20028;-75
2023/01/21 08:03:35;;;;;;;13.30;5.85;;;-0.30;99.90;;;;;;5094721;28;20027;-75
2023/01/21 08:06:00;;;;;;;11.18;6.18;;;-0.30;99.90;;;;;;5094222;28;20028;-75
2023/01/21 08:08:26;;;;;;;11.05;5.85;;;-0.30;99.90;;;;;;5076061;28;20453;-77
2023/01/21 08:10:53;;;;;;;15.93;5.80;;;-0.30;99.90;;;;;;5094207;28;20020;-76
2023/01/21 08:13:19;;;;;;;12.25;6.35;;;-0.30;99.90;;;;;;5094264;28;20039;-78
2023/01/21 08:15:49;;;;;;;10.90;5.30;;;-0.20;99.90;;;;;;5094221;28;20032;-74
2023/01/21 08:18:15;;;;;;;13.52;6.75;;;-0.30;99.90;;;;;;5094600;28;20469;-74
2023/01/21 08:20:40;;;;;;;12.23;5.90;;;-0.30;99.90;;;;;;5075879;28;20032;-74
2023/01/21 08:23:06;;;;;;;17.38;6.82;;;-0.20;99.90;;;;;;5093941;28;20020;-74
2023/01/21 08:25:32;;;;;;;12.05;6.00;;;-0.20;99.90;;;;;;5094166;28;20020;-76
2023/01/21 08:27:58;;;;;;;13.80;6.75;;;-0.20;99.90;;;;;;5076751;28;20115;-74
2023/01/21 08:30:24;;;;;;;14.15;6.13;;;-0.20;99.90;;;;;;5094143;28;20089;-74
2023/01/21 08:32:50;;;;;;;17.95;6.47;;;-0.20;99.90;;;;;;5093492;28;20025;-74
2023/01/21 08:35:16;;;;;;;14.65;6.85;;;-0.20;99.90;;;;;;5074446;28;20097;-75
2023/01/21 08:37:41;;;;;;;14.52;7.45;;;-0.20;99.90;;;;;;5079720;28;20031;-75
2023/01/21 08:40:08;;;;;;;14.00;7.10;;;-0.20;99.90;;;;;;5055540;28;20036;-72
2023/01/21 08:42:33;;;;;;;12.10;6.20;;;-0.20;99.90;;;;;;5055597;28;20032;-76
2023/01/21 08:44:59;;;;;;;13.27;7.22;;;-0.20;99.90;;;;;;5073698;28;20030;-75
2023/01/21 08:47:25;;;;;;;13.50;7.20;;;-0.20;99.90;;;;;;5073533;28;20466;-76
2023/01/21 08:49:51;;;;;;;12.98;6.40;;;-0.20;99.90;;;;;;5055639;28;20112;-76
2023/01/21 08:52:16;;;;;;;20.58;6.72;;;-0.20;99.90;;;;;;5073329;28;20028;-75
2023/01/21 08:54:42;;;;;;;9.90;6.63;;;-0.20;99.90;;;;;;5055585;28;20025;-75
2023/01/21 08:57:08;;;;;;;12.52;6.20;;;-0.20;99.90;;;;;;5055408;28;20032;-75
2023/01/21 08:59:34;;;;;;;14.43;6.55;;;-0.20;99.90;;;;;;5072285;28;20378;-75
2023/01/21 09:02:00;;;;;;;15.35;6.53;;;-0.20;99.90;;;;;;5055391;28;20025;-76
2023/01/21 09:04:25;;;;;;;12.15;6.13;;;-0.30;99.90;;;;;;5073458;28;20091;-76
2023/01/21 09:06:51;;;;;;;13.98;7.03;;;-0.20;99.90;;;;;;5073224;28;20037;-76
2023/01/21 09:09:17;;;;;;;11.25;6.10;;;-0.30;99.90;;;;;;5057026;28;20032;-74
2023/01/21 09:11:43;;;;;;;10.38;6.35;;;-0.30;99.90;;;;;;5076899;28;20024;-75
2023/01/21 09:14:08;;;;;;;11.00;5.95;;;-0.30;99.90;;;;;;5056309;28;20142;-78
2023/01/21 09:16:35;;;;;;;15.27;6.53;;;-0.30;99.90;;;;;;5056713;28;20025;-80
2023/01/21 09:19:01;;;;;;;10.55;6.15;;;-0.20;99.90;;;;;;5076345;28;20020;-78
2023/01/21 09:21:28;;;;;;;11.13;6.18;;;-0.20;99.90;;;;;;5076714;28;20020;-78
2023/01/21 09:23:54;;;;;;;11.95;6.32;;;-0.30;99.90;;;;;;5058564;28;20021;-82
2023/01/21 09:26:22;;;;;;;12.20;6.05;;;-0.30;99.90;;;;;;5075283;28;20067;-77
2023/01/21 09:28:53;;;;;;;17.33;6.80;;;-0.30;99.90;;;;;;5059753;28;20474;-61
2023/01/21 09:31:23;;;;;;;14.30;5.60;;;-0.30;99.90;;;;;;5056092;28;20056;-69
2023/01/21 09:33:55;;;;;;;17.67;5.75;;;-0.20;99.90;;;;;;5074977;28;20025;-68
2023/01/21 09:36:24;;;;;;;12.52;6.10;;;-0.20;99.90;;;;;;5047935;28;20043;-76
2023/01/21 09:38:50;;;;;;;22.45;6.43;;;-0.20;99.90;;;;;;5073898;28;20028;-76
2023/01/21 09:41:35;;;;;;;15.70;5.75;;;-0.10;99.90;;;;;;5047308;28;20055;-76
2023/01/21 09:44:55;;;;;;;18.17;7.20;;;-0.10;99.90;;;;;;5073395;28;20028;-76
2023/01/21 09:47:25;;;;;;;13.60;5.70;;;0.00;99.90;;;;;;4987508;28;20123;-72
2023/01/21 09:49:53;;;;;;;16.55;6.15;;;-0.10;99.90;;;;;;5061960;28;20033;-80
2023/01/21 09:52:28;;;;;;;15.82;5.57;;;0.00;99.90;;;;;;5076828;28;20047;-78
2023/01/21 09:54:55;;;;;;;27.90;6.88;;;-0.10;99.90;;;;;;5060502;28;20116;-76
2023/01/21 09:57:54;;;;;;;17.02;6.68;;;-0.10;99.90;;;;;;5058458;28;20032;-75
2023/01/21 10:00:29;;;;;;;19.15;7.00;;;-0.10;99.90;;;;;;5076990;28;20036;-79
2023/01/21 10:03:04;;;;;;;16.27;5.72;;;-0.10;99.90;;;;;;5076783;28;20025;-77
2023/01/21 10:05:37;;;;;;;14.55;5.32;;;-0.10;99.90;;;;;;5076248;28;20031;-77
2023/01/21 10:08:35;;;;;;;13.27;4.60;;;-0.10;99.90;;;;;;5075868;28;20466;-77
2023/01/21 10:11:32;;;;;;;18.70;5.05;;;-0.10;99.90;;;;;;5082831;28;20025;-83
2023/01/21 10:14:22;;;;;;;13.35;4.82;;;-0.10;99.90;;;;;;5078616;28;20493;-80
2023/01/21 10:17:14;;;;;;;8.68;4.45;;;-0.10;99.90;;;;;;5058792;28;20036;-81
2023/01/21 10:19:45;;;;;;;11.82;4.50;;;-0.20;99.90;;;;;;5058693;28;20024;-79
2023/01/21 10:22:19;;;;;;;10.25;5.03;;;-0.20;99.90;;;;;;5058114;28;20051;-79
2023/01/21 10:24:52;;;;;;;11.27;4.28;;;-0.20;99.90;;;;;;5058222;28;20116;-80
2023/01/21 10:27:21;;;;;;;16.23;5.07;;;-0.20;99.90;;;;;;5075790;28;20111;-78
2023/01/21 10:29:48;;;;;;;;;;;-0.20;99.90;;;;;;5077361;28;20371;-78
2023/01/21 10:32:19;;;;;;;13.63;4.97;;;0.20;99.90;;;;;;5057918;28;20488;-77
2023/01/21 10:34:51;;;;;;;8.20;4.00;;;-0.10;99.90;;;;;;5084386;28;20056;-77
2023/01/21 10:37:25;;;;;;;14.68;4.40;;;-0.10;99.90;;;;;;5077841;28;20039;-78
2023/01/21 10:40:10;;;;;;;9.60;4.32;;;-0.10;99.90;;;;;;5095891;28;20477;-78
2023/01/21 10:43:00;;;;;;;11.32;5.07;;;-0.10;99.90;;;;;;5096232;28;20085;-78
2023/01/21 10:45:30;;;;;;;16.45;4.13;;;-0.10;99.90;;;;;;5095438;28;20081;-77
2023/01/21 10:48:01;;;;;;;9.60;4.82;;;-0.10;99.90;;;;;;5078198;28;20039;-78
2023/01/21 10:50:55;;;;;;;9.35;4.63;;;-0.20;99.90;;;;;;5057395;28;20025;-78
2023/01/21 10:53:55;;;;;;;14.52;4.20;;;-0.20;99.90;;;;;;5063143;28;20436;-78
2023/01/21 10:56:44;;;;;;;8.63;4.40;;;-0.20;99.90;;;;;;5056732;28;20433;-78
2023/01/21 10:59:17;;;;;;;7.15;3.88;;;-0.10;99.90;;;;;;5024012;28;20085;-79
2023/01/21 11:01:50;;;;;;;11.13;5.10;;;-0.10;99.90;;;;;;5057129;28;20059;-79
2023/01/21 11:04:20;;;;;;;8.55;5.03;;;0.00;99.90;;;;;;5075125;28;20028;-78
2023/01/21 11:07:02;;;;;;;10.82;4.68;;;0.00;99.90;;;;;;5057439;28;20402;-78
2023/01/21 11:09:36;;;;;;;6.63;4.40;;;0.00;99.90;;;;;;5075205;28;20044;-78
2023/01/21 11:12:02;;;;;;;10.35;4.80;;;0.00;99.90;;;;;;5075111;28;20020;-80
2023/01/21 11:14:28;;;;;;;14.60;5.22;;;-0.10;99.90;;;;;;5057481;28;20378;-78
2023/01/21 11:16:54;;;;;;;9.15;4.28;;;0.00;99.90;;;;;;5074315;28;20033;-79
2023/01/21 11:19:32;;;;;;;10.15;4.00;;;-0.10;99.90;;;;;;5074679;28;20020;-79
2023/01/21 11:21:59;;;;;;;9.70;4.27;;;-0.10;99.90;;;;;;5056872;28;20025;-79
2023/01/21 11:24:26;;;;;;;6.80;3.95;;;0.00;99.90;;;;;;5073427;28;20361;-79
2023/01/21 11:26:57;;;;;;;11.80;4.65;;;-0.10;99.90;;;;;;5077010;28;20061;-78
2023/01/21 11:29:24;;;;;;;10.18;4.30;;;0.00;99.90;;;;;;5077403;28;20024;-80
2023/01/21 11:32:03;;;;;;;6.38;3.83;;;0.00;99.90;;;;;;5077077;28;20531;-82
2023/01/21 11:34:29;;;;;;;12.73;4.65;;;-0.10;99.90;;;;;;5077348;28;20040;-82
2023/01/21 11:37:03;;;;;;;12.23;4.40;;;0.00;99.90;;;;;;5077829;28;20039;-79
2023/01/21 11:39:39;;;;;;;6.65;4.35;;;0.00;99.90;;;;;;5094716;28;20426;-83
2023/01/21 11:42:14;;;;;;;7.10;3.85;;;-0.10;99.90;;;;;;5077657;28;20063;-81
2023/01/21 11:45:00;;;;;;;7.03;4.13;;;-0.10;99.90;;;;;;5077025;28;20074;-79
2023/01/21 11:47:48;;;;;;;12.60;4.60;;;0.00;99.90;;;;;;5078105;28;20409;-78
2023/01/21 11:50:28;;;;;;;8.75;4.07;;;0.00;99.90;;;;;;5078209;28;20035;-80
2023/01/21 11:53:10;;;;;;;10.00;4.35;;;0.00;99.90;;;;;;5076894;28;20027;-80
2023/01/21 11:55:41;;;;;;;8.25;4.45;;;0.00;99.90;;;;;;5094959;28;20028;-80
2023/01/21 11:58:17;;;;;;;6.75;3.97;;;0.00;99.90;;;;;;5078003;28;20032;-79
2023/01/21 12:00:46;;;;;;;10.13;3.55;;;0.10;99.90;;;;;;5096281;28;20036;-80
2023/01/21 12:03:19;;;;;;;8.57;3.80;;;0.10;99.90;;;;;;5100303;28;20366;-84
2023/01/21 12:05:49;;;;;;;12.98;4.32;;;0.10;99.90;;;;;;5099713;28;20020;-81
2023/01/21 12:08:36;;;;;;;13.68;3.65;;;0.10;99.90;;;;;;5068087;28;20474;-78
2023/01/21 12:11:04;;;;;;;9.13;3.45;;;0.10;99.90;;;;;;5097241;28;20024;-79
2023/01/21 12:13:44;;;;;;;8.95;4.82;;;0.20;99.90;;;;;;5097790;28;20420;-80
2023/01/21 12:16:36;;;;;;;15.98;5.53;;;0.20;99.90;;;;;;5097623;28;20117;-75
2023/01/21 12:19:09;;;;;;;7.78;4.13;;;0.20;99.90;;;;;;5060274;28;20392;-80
2023/01/21 12:21:38;;;;;;;14.77;4.57;;;0.20;99.90;;;;;;5095931;28;20115;-78
2023/01/21 12:24:21;;;;;;;7.80;4.20;;;0.20;99.90;;;;;;5094336;28;20036;-80
2023/01/21 12:27:02;;;;;;;9.00;4.55;;;0.20;99.90;;;;;;5095100;28;20032;-77
2023/01/21 12:29:36;;;;;;;20.88;5.15;;;0.30;99.90;;;;;;5069542;28;20469;-82
2023/01/21 12:32:08;;;;;;;9.45;4.25;;;0.30;99.90;;;;;;5094197;28;20024;-78
2023/01/21 12:34:52;;;;;;;14.38;4.35;;;0.30;99.90;;;;;;5075714;28;20055;-79
2023/01/21 12:37:45;;;;;;;9.48;3.95;;;0.30;99.90;;;;;;5075579;28;20039;-77
2023/01/21 12:40:24;;;;;;;8.02;4.55;;;0.40;99.90;;;;;;5063193;28;20044;-78
2023/01/21 12:42:54;;;;;;;;;;;0.40;99.90;;;;;;5094478;28;20148;-78
2023/01/21 12:45:26;;;;;;;7.50;4.32;;;0.30;99.90;;;;;;5093944;28;19943;-75
2023/01/21 12:48:14;;;;;;;20.85;4.25;;;0.30;99.90;;;;;;5093905;28;20024;-79
2023/01/21 12:50:47;;;;;;;21.70;16.30;;;0.30;99.90;;;;;;5075789;28;20024;-78
2023/01/21 12:53:22;;;;;;;32.28;7.82;;;0.30;99.90;;;;;;5094014;28;20032;-79
2023/01/21 12:56:18;;;;;;;11.80;4.20;;;0.30;99.90;;;;;;5075420;28;20024;-79
2023/01/21 12:58:59;;;;;;;13.30;4.55;;;0.40;99.90;;;;;;5093739;28;20029;-79
2023/01/21 13:01:49;;;;;;;8.68;3.60;;;0.40;99.90;;;;;;5075577;28;20021;-80